Time;durP1;ratioP1;P1;durP2;ratioP2;P2;SDS_P1;SDS_P2;PMS_P1;PMS_P2;Temp;Humidity;BMP_temperature;BMP_pressure;BME280_temperature;BME280_humidity;BME280_pressure;Samples;Min_cycle;Max_cycle;Signal;HPM_P1;HPM_P2
2021/08/31 00:00:32;;;;;;;;;;;;;;;13.65;84.10;99383.63;5054179;28;19924;-70
2021/08/31 00:03:02;;;;;;;;;;;;;;;13.68;84.48;99391.25;5053973;28;20328;-71
2021/08/31 00:05:31;;;;;;;;;;;;;;;13.66;84.57;99382.75;5054470;28;19951;-70
2021/08/31 00:08:00;;;;;;;;;;;;;;;13.62;84.63;99386.25;5054111;28;19925;-70
2021/08/31 00:10:30;;;;;;;;;;;;;;;13.64;84.46;99376.81;5054042;28;19926;-73
2021/08/31 00:13:00;;;;;;;;;;;;;;;13.67;84.94;99380.16;5054012;28;19971;-71
2021/08/31 00:15:29;;;;;;;;;;;;;;;13.64;84.62;99379.38;5053973;28;19924;-70
2021/08/31 00:18:00;;;;;;;;;;;;;;;13.67;84.91;99381.88;5053965;28;19925;-73
2021/08/31 00:20:31;;;;;;;;;;;;;;;13.73;84.88;99374.91;5053699;28;19931;-73
2021/08/31 00:22:59;;;;;;;;;;;;;;;13.70;85.04;99374.13;5054201;28;19925;-70
2021/08/31 00:25:28;;;;;;;;;;;;;;;13.54;84.97;99377.81;5054115;28;19925;-70
2021/08/31 00:28:02;;;;;;;;;;;;;;;13.41;85.25;99385.72;5053917;28;19951;-70
2021/08/31 00:30:30;;;;;;;;;;;;;;;13.52;85.38;99389.84;5053804;28;19986;-73
2021/08/31 00:32:59;;;;;;;;;;;;;;;13.40;85.29;99390.91;5054038;28;20281;-73
2021/08/31 00:35:28;;;;;;;;;;;;;;;13.17;85.00;99386.13;5053683;28;20361;-70
2021/08/31 00:37:58;;;;;;;;;;;;;;;13.04;85.50;99381.19;5053766;28;20374;-70
2021/08/31 00:40:26;;;;;;;;;;;;;;;13.06;85.70;99387.19;5053793;28;19971;-70
2021/08/31 00:42:55;;;;;;;;;;;;;;;13.10;85.97;99387.09;5054895;28;19925;-72
2021/08/31 00:45:24;;;;;;;;;;;;;;;13.02;86.15;99388.91;5057922;28;19935;-70
2021/08/31 00:47:53;;;;;;;;;;;;;;;12.95;86.26;99387.31;5057748;28;19925;-73
2021/08/31 00:50:22;;;;;;;;;;;;;;;12.87;86.30;99384.03;5057575;28;19925;-70
2021/08/31 00:52:52;;;;;;;;;;;;;;;12.65;86.16;99372.38;5057631;28;20023;-70
2021/08/31 00:55:22;;;;;;;;;;;;;;;12.63;86.60;99374.13;5057749;28;20445;-70
2021/08/31 00:57:51;;;;;;;;;;;;;;;12.70;86.91;99384.25;5057616;28;19955;-70
2021/08/31 01:00:20;;;;;;;;;;;;;;;12.77;87.22;99379.91;5057479;28;19939;-73
2021/08/31 01:02:48;;;;;;;;;;;;;;;12.80;87.04;99382.41;5057377;28;19925;-70
2021/08/31 01:05:17;;;;;;;;;;;;;;;12.82;86.98;99379.81;5057209;28;19931;-70
2021/08/31 01:07:46;;;;;;;;;;;;;;;12.66;87.05;99377.50;5057622;28;19925;-70
2021/08/31 01:10:15;;;;;;;;;;;;;;;12.69;87.52;99381.75;5057666;28;19928;-70
2021/08/31 01:12:46;;;;;;;;;;;;;;;12.75;87.25;99384.19;5057625;28;19951;-70
2021/08/31 01:15:14;;;;;;;;;;;;;;;12.71;87.31;99383.41;5057479;28;19929;-70
2021/08/31 01:17:43;;;;;;;;;;;;;;;12.64;87.38;99386.06;5057210;28;19967;-73
2021/08/31 01:20:12;;;;;;;;;;;;;;;12.62;87.41;99395.50;5057126;28;19928;-70
2021/08/31 01:22:59;;;;;;;;;;;;;;;12.60;87.31;99381.84;5057096;28;19931;-72
2021/08/31 01:25:29;;;;;;;;;;;;;;;12.54;87.66;99387.06;5057011;28;19925;-71
2021/08/31 01:27:58;;;;;;;;;;;;;;;12.53;87.41;99393.88;5057043;28;20404;-72
2021/08/31 01:30:29;;;;;;;;;;;;;;;12.57;87.21;99384.47;5039554;28;19929;-73
2021/08/31 01:32:58;;;;;;;;;;;;;;;12.62;87.36;99387.81;5056932;28;19932;-73
2021/08/31 01:35:27;;;;;;;;;;;;;;;12.74;87.57;99392.75;5056769;28;19932;-70
2021/08/31 01:37:55;;;;;;;;;;;;;;;12.73;87.08;99391.06;5057101;28;20019;-69
2021/08/31 01:40:24;;;;;;;;;;;;;;;12.63;87.44;99399.72;5056757;28;19936;-70
2021/08/31 01:42:54;;;;;;;;;;;;;;;12.58;87.20;99396.38;5056727;28;20002;-73
2021/08/31 01:45:23;;;;;;;;;;;;;;;12.58;87.40;99391.25;5056794;28;20285;-70
2021/08/31 01:47:51;;;;;;;;;;;;;;;12.60;87.55;99389.53;5056643;28;19932;-69
2021/08/31 01:50:20;;;;;;;;;;;;;;;12.51;87.33;99385.38;5057210;28;19964;-72
2021/08/31 01:52:49;;;;;;;;;;;;;;;12.51;87.55;99385.38;5056813;28;19925;-69
2021/08/31 01:55:17;;;;;;;;;;;;;;;12.47;87.55;99388.00;5055324;28;19925;-69
2021/08/31 01:57:46;;;;;;;;;;;;;;;12.41;87.39;99383.81;5056666;28;20277;-73
2021/08/31 02:00:16;;;;;;;;;;;;;;;12.45;87.39;99374.38;5056287;28;20441;-70
2021/08/31 02:02:45;;;;;;;;;;;;;;;12.45;87.49;99380.31;5056349;28;19928;-72
2021/08/31 02:05:14;;;;;;;;;;;;;;;12.43;87.24;99378.69;5056206;28;19939;-72
2021/08/31 02:07:43;;;;;;;;;;;;;;;12.40;87.65;99381.28;5056184;28;19978;-70
2021/08/31 02:10:12;;;;;;;;;;;;;;;12.38;87.50;99383.00;5056193;28;20374;-70
2021/08/31 02:12:41;;;;;;;;;;;;;;;12.21;87.57;99374.69;5056481;28;19932;-69
2021/08/31 02:15:10;;;;;;;;;;;;;;;12.01;87.69;99378.34;5056473;28;19925;-72
2021/08/31 02:17:41;;;;;;;;;;;;;;;12.08;87.55;99377.41;5055996;28;19978;-69
2021/08/31 02:20:11;;;;;;;;;;;;;;;12.18;87.68;99369.59;5056061;28;20297;-72
2021/08/31 02:22:40;;;;;;;;;;;;;;;12.36;87.85;99374.47;5055879;28;19960;-72
2021/08/31 02:25:09;;;;;;;;;;;;;;;12.39;87.63;99377.00;5055824;28;19925;-69
2021/08/31 02:27:37;;;;;;;;;;;;;;;12.35;87.41;99372.81;5055793;28;19956;-73
2021/08/31 02:30:07;;;;;;;;;;;;;;;12.37;87.69;99371.06;5055814;28;19925;-69
2021/08/31 02:32:36;;;;;;;;;;;;;;;12.31;87.17;99368.59;5055831;28;19925;-69
2021/08/31 02:35:07;;;;;;;;;;;;;;;12.32;87.45;99373.69;5056008;28;19928;-69
2021/08/31 02:37:36;;;;;;;;;;;;;;;12.30;87.33;99362.63;5055861;28;19932;-73
2021/08/31 02:40:05;;;;;;;;;;;;;;;12.35;87.18;99358.31;5071026;28;19936;-69
2021/08/31 02:42:34;;;;;;;;;;;;;;;12.41;87.33;99352.25;5038065;28;19932;-72
2021/08/31 02:45:03;;;;;;;;;;;;;;;12.46;87.33;99358.16;5055769;28;19925;-72
2021/08/31 02:47:31;;;;;;;;;;;;;;;12.32;86.90;99352.38;5055338;28;19932;-70
2021/08/31 02:50:00;;;;;;;;;;;;;;;12.30;87.17;99359.22;5055426;28;19971;-70
2021/08/31 02:52:30;;;;;;;;;;;;;;;12.37;87.28;99361.69;5055377;28;19932;-70
2021/08/31 02:54:59;;;;;;;;;;;;;;;12.46;87.20;99360.69;5055390;28;20382;-70
2021/08/31 02:57:29;;;;;;;;;;;;;;;12.50;87.33;99367.50;5055555;28;19939;-72
2021/08/31 03:00:00;;;;;;;;;;;;;;;12.61;87.29;99370.75;5055190;28;19960;-70
2021/08/31 03:02:29;;;;;;;;;;;;;;;12.62;87.02;99362.22;5055227;28;19925;-70
2021/08/31 03:04:58;;;;;;;;;;;;;;;12.65;86.86;99362.16;5055050;28;19924;-73
2021/08/31 03:07:27;;;;;;;;;;;;;;;12.71;87.04;99362.94;5055231;28;19924;-71
2021/08/31 03:09:57;;;;;;;;;;;;;;;12.72;86.93;99356.06;5055086;28;19975;-71
2021/08/31 03:12:28;;;;;;;;;;;;;;;12.61;86.73;99350.25;5054322;28;20462;-73
2021/08/31 03:14:56;;;;;;;;;;;;;;;12.54;86.72;99348.66;5054986;28;19979;-72
2021/08/31 03:17:25;;;;;;;;;;;;;;;12.64;86.67;99350.22;5054985;28;20024;-69
2021/08/31 03:19:54;;;;;;;;;;;;;;;12.64;86.70;99355.34;5055192;28;20326;-70
2021/08/31 03:22:23;;;;;;;;;;;;;;;12.56;86.54;99352.88;5054596;28;19971;-70
2021/08/31 03:24:51;;;;;;;;;;;;;;;12.64;86.91;99356.16;5054705;28;19925;-70
2021/08/31 03:27:21;;;;;;;;;;;;;;;12.63;86.63;99351.94;5036906;28;19925;-69
2021/08/31 03:29:50;;;;;;;;;;;;;;;12.65;86.41;99354.47;5054748;28;20293;-72
2021/08/31 03:32:19;;;;;;;;;;;;;;;12.63;86.64;99356.19;5054520;28;19972;-70
2021/08/31 03:34:47;;;;;;;;;;;;;;;12.63;86.71;99353.63;5054455;28;19924;-69
2021/08/31 03:37:16;;;;;;;;;;;;;;;12.68;86.84;99346.75;5054558;28;20461;-69
2021/08/31 03:39:44;;;;;;;;;;;;;;;12.70;86.79;99345.00;5054836;28;19928;-73
2021/08/31 03:42:13;;;;;;;;;;;;;;;12.71;86.77;99351.84;5054823;28;19947;-70
2021/08/31 03:44:44;;;;;;;;;;;;;;;12.70;86.62;99350.13;5054341;28;19932;-73
2021/08/31 03:47:13;;;;;;;;;;;;;;;12.74;87.00;99360.28;5054391;28;19929;-70
2021/08/31 03:49:42;;;;;;;;;;;;;;;12.74;86.71;99351.78;5054708;28;19924;-70
2021/08/31 03:52:11;;;;;;;;;;;;;;;12.73;86.84;99350.09;5054303;28;19978;-69
2021/08/31 03:54:40;;;;;;;;;;;;;;;12.75;86.73;99358.59;5054636;28;20294;-72
2021/08/31 03:57:08;;;;;;;;;;;;;;;12.73;86.49;99365.44;5054168;28;19974;-70
2021/08/31 03:59:38;;;;;;;;;;;;;;;12.74;86.79;99367.97;5054446;28;19972;-70
2021/08/31 04:02:08;;;;;;;;;;;;;;;12.72;86.31;99366.31;5054113;28;19947;-71
2021/08/31 04:04:36;;;;;;;;;;;;;;;12.70;86.70;99370.59;5054087;28;19928;-70
2021/08/31 04:07:06;;;;;;;;;;;;;;;12.70;86.51;99365.47;5054001;28;19932;-71
2021/08/31 04:09:35;;;;;;;;;;;;;;;12.71;86.66;99369.75;5054000;28;19979;-73
2021/08/31 04:12:04;;;;;;;;;;;;;;;12.71;86.56;99372.31;5054082;28;19986;-70
2021/08/31 04:14:33;;;;;;;;;;;;;;;12.60;86.80;99362.22;5054047;28;19925;-69
2021/08/31 04:17:02;;;;;;;;;;;;;;;12.58;86.72;99373.34;5053498;28;19925;-70
2021/08/31 04:19:32;;;;;;;;;;;;;;;12.53;86.76;99382.78;5053862;28;19931;-69
2021/08/31 04:22:01;;;;;;;;;;;;;;;12.56;86.88;99372.53;5053771;28;19924;-70
2021/08/31 04:24:31;;;;;;;;;;;;;;;12.46;86.83;99370.94;5054175;28;20063;-70
2021/08/31 04:26:59;;;;;;;;;;;;;;;12.43;86.85;99368.44;5053768;28;19947;-72
2021/08/31 04:29:28;;;;;;;;;;;;;;;12.42;86.98;99359.06;5053822;28;19931;-70
2021/08/31 04:31:57;;;;;;;;;;;;;;;12.37;86.97;99354.00;5053754;28;19961;-71
2021/08/31 04:34:25;;;;;;;;;;;;;;;12.43;87.04;99350.53;5053755;28;19928;-73
2021/08/31 04:36:55;;;;;;;;;;;;;;;12.44;87.17;99357.31;5053788;28;19925;-70
2021/08/31 04:39:24;;;;;;;;;;;;;;;12.58;87.09;99350.31;5053775;28;20007;-69
2021/08/31 04:41:53;;;;;;;;;;;;;;;12.71;87.18;99356.94;5054030;28;20019;-70
2021/08/31 04:44:24;;;;;;;;;;;;;;;12.78;87.00;99359.41;5053640;28;19928;-72
2021/08/31 04:46:53;;;;;;;;;;;;;;;12.76;86.70;99365.41;5053634;28;19925;-70
2021/08/31 04:49:22;;;;;;;;;;;;;;;12.79;86.80;99366.19;5053648;28;19960;-70
2021/08/31 04:51:51;;;;;;;;;;;;;;;12.81;86.83;99368.75;5053645;28;19931;-72
2021/08/31 04:54:22;;;;;;;;;;;;;;;12.86;86.91;99361.81;5053676;28;20375;-73
2021/08/31 04:56:50;;;;;;;;;;;;;;;12.90;86.89;99360.94;5053947;28;20409;-70
2021/08/31 04:59:19;;;;;;;;;;;;;;;12.83;87.07;99356.78;5053543;28;19932;-72
2021/08/31 05:01:48;;;;;;;;;;;;;;;12.92;86.88;99351.50;5054350;28;19935;-70
2021/08/31 05:04:17;;;;;;;;;;;;;;;13.04;87.08;99356.44;5053360;28;19933;-72
2021/08/31 05:06:47;;;;;;;;;;;;;;;13.16;87.06;99358.84;5053439;28;19929;-72
2021/08/31 05:09:16;;;;;;;;;;;;;;;13.29;86.76;99350.06;5053529;28;19929;-70
2021/08/31 05:11:46;;;;;;;;;;;;;;;13.41;86.90;99354.97;5053477;28;19932;-70
2021/08/31 05:14:15;;;;;;;;;;;;;;;13.46;86.74;99357.44;5053654;28;20250;-70
2021/08/31 05:16:44;;;;;;;;;;;;;;;13.43;86.79;99355.81;5053772;28;19968;-69
2021/08/31 05:19:12;;;;;;;;;;;;;;;13.48;86.84;99352.31;5053593;28;20378;-72
2021/08/31 05:21:42;;;;;;;;;;;;;;;13.52;87.01;99349.66;5053232;28;20011;-69
2021/08/31 05:24:11;;;;;;;;;;;;;;;13.53;86.89;99355.66;5053356;28;20413;-73
2021/08/31 05:26:39;;;;;;;;;;;;;;;13.63;87.18;99354.63;5053627;28;19925;-70
2021/08/31 05:29:09;;;;;;;;;;;;;;;13.70;87.00;99357.00;5054839;28;19925;-70
2021/08/31 05:31:43;;;;;;;;;;;;;;;13.71;86.93;99355.28;5039137;28;19932;-72
2021/08/31 05:34:12;;;;;;;;;;;;;;;13.78;86.88;99351.75;5039308;28;19925;-69
2021/08/31 05:36:41;;;;;;;;;;;;;;;13.90;86.70;99342.09;5057180;28;20023;-69
2021/08/31 05:39:09;;;;;;;;;;;;;;;13.98;86.28;99340.25;5056726;28;19924;-70
2021/08/31 05:41:38;;;;;;;;;;;;;;;13.97;86.31;99337.69;5056786;28;20011;-70
2021/08/31 05:44:07;;;;;;;;;;;;;;;13.99;86.73;99341.06;5056652;28;20271;-69
2021/08/31 05:46:37;;;;;;;;;;;;;;;13.99;86.36;99333.34;5056643;28;20032;-69
2021/08/31 05:49:06;;;;;;;;;;;;;;;13.99;86.43;99336.78;5056627;28;19931;-73
2021/08/31 05:51:34;;;;;;;;;;;;;;;14.02;86.38;99341.00;5056694;28;19963;-69
2021/08/31 05:54:03;;;;;;;;;;;;;;;14.09;86.55;99343.41;5039667;28;20439;-73
2021/08/31 05:56:31;;;;;;;;;;;;;;;14.17;86.31;99345.84;5056476;28;19983;-72
2021/08/31 05:59:00;;;;;;;;;;;;;;;14.22;86.24;99346.59;5056388;28;19925;-71
2021/08/31 06:01:28;;;;;;;;;;;;;;;14.29;86.30;99340.44;5056949;28;20019;-69
2021/08/31 06:03:59;;;;;;;;;;;;;;;14.36;86.24;99336.06;5056288;28;19935;-73
2021/08/31 06:06:28;;;;;;;;;;;;;;;14.45;86.45;99340.97;5056246;28;19935;-72
2021/08/31 06:08:57;;;;;;;;;;;;;;;14.53;86.38;99339.94;5056208;28;19975;-72
2021/08/31 06:11:29;;;;;;;;;;;;;;;14.49;86.43;99334.91;5056146;28;19929;-72
2021/08/31 06:13:57;;;;;;;;;;;;;;;14.48;86.42;99331.50;5056168;28;19975;-69
2021/08/31 06:16:26;;;;;;;;;;;;;;;14.50;86.33;99340.00;5056095;28;20007;-70
2021/08/31 06:18:55;;;;;;;;;;;;;;;14.51;86.32;99346.00;5056185;28;20385;-73
2021/08/31 06:21:25;;;;;;;;;;;;;;;14.51;86.86;99344.28;5055799;28;20453;-69
2021/08/31 06:23:53;;;;;;;;;;;;;;;14.51;86.57;99346.84;5056283;28;19928;-73
2021/08/31 06:26:22;;;;;;;;;;;;;;;14.55;86.90;99352.75;5055606;28;20015;-71
2021/08/31 06:28:51;;;;;;;;;;;;;;;14.63;86.70;99354.28;5055801;28;20011;-73
2021/08/31 06:31:19;;;;;;;;;;;;;;;14.69;86.59;99348.13;5056060;28;19925;-70
2021/08/31 06:33:48;;;;;;;;;;;;;;;14.74;86.84;99348.88;5055941;28;20392;-73
2021/08/31 06:36:16;;;;;;;;;;;;;;;14.81;86.80;99349.59;5055518;28;19968;-72
2021/08/31 06:38:47;;;;;;;;;;;;;;;14.96;86.59;99344.09;5055631;28;19928;-72
2021/08/31 06:41:15;;;;;;;;;;;;;;;15.04;86.62;99349.91;5055317;28;19931;-70
2021/08/31 06:43:45;;;;;;;;;;;;;;;15.13;86.42;99347.97;5055635;28;19936;-73
2021/08/31 06:46:14;;;;;;;;;;;;;;;15.25;86.38;99352.78;5055770;28;20092;-70
2021/08/31 06:48:43;;;;;;;;;;;;;;;15.33;85.87;99350.84;5055730;28;20366;-70
2021/08/31 06:51:13;;;;;;;;;;;;;;;15.34;85.41;99351.72;5055649;28;20087;-73
2021/08/31 06:53:42;;;;;;;;;;;;;;;15.42;85.41;99342.09;5055638;28;20373;-73
2021/08/31 06:56:12;;;;;;;;;;;;;;;15.40;85.06;99341.28;5055616;28;19925;-72
2021/08/31 06:58:40;;;;;;;;;;;;;;;15.37;85.21;99341.34;5055354;28;19925;-73
2021/08/31 07:01:09;;;;;;;;;;;;;;;15.38;84.95;99349.00;5055222;28;19960;-72
2021/08/31 07:03:38;;;;;;;;;;;;;;;15.41;84.94;99348.94;5055502;28;19936;-73
2021/08/31 07:06:17;;;;;;;;;;;;;;;15.44;84.69;99345.44;5055256;28;19932;-73
2021/08/31 07:08:46;;;;;;;;;;;;;;;15.53;84.46;99347.81;5055081;28;20007;-74
2021/08/31 07:11:16;;;;;;;;;;;;;;;15.59;84.46;99349.38;5054901;28;19924;-73
2021/08/31 07:13:45;;;;;;;;;;;;;;;15.63;84.17;99354.41;5055286;28;20396;-71
2021/08/31 07:16:29;;;;;;;;;;;;;;;15.70;83.92;99345.66;5055020;28;20144;-73
2021/08/31 07:18:57;;;;;;;;;;;;;;;15.77;84.05;99351.47;5055084;28;19953;-73
2021/08/31 07:21:26;;;;;;;;;;;;;;;15.81;83.50;99346.19;5055127;28;19971;-70
2021/08/31 07:23:55;;;;;;;;;;;;;;;15.86;83.28;99353.81;5054771;28;19924;-73
2021/08/31 07:26:25;;;;;;;;;;;;;;;15.92;83.30;99358.78;5055004;28;19971;-71
2021/08/31 07:28:57;;;;;;;;;;;;;;;15.98;83.24;99351.72;5054761;28;19955;-73
2021/08/31 07:31:26;;;;;;;;;;;;;;;16.10;82.95;99351.38;5054560;28;19968;-72
2021/08/31 07:33:54;;;;;;;;;;;;;;;16.19;82.64;99350.28;5054648;28;19978;-70
2021/08/31 07:36:23;;;;;;;;;;;;;;;16.25;82.27;99349.25;5054782;28;19924;-72
2021/08/31 07:38:54;;;;;;;;;;;;;;;16.28;82.09;99346.59;5054883;28;20289;-70
2021/08/31 07:41:25;;;;;;;;;;;;;;;16.31;81.65;99346.50;5054469;28;19925;-70
2021/08/31 07:43:54;;;;;;;;;;;;;;;16.38;81.25;99345.44;5036779;28;19925;-72
2021/08/31 07:46:22;;;;;;;;;;;;;;;16.38;81.25;99355.75;5054452;28;20007;-72
2021/08/31 07:48:51;;;;;;;;;;;;;;;16.37;81.21;99356.63;5054301;28;19925;-70
2021/08/31 07:51:20;;;;;;;;;;;;;;;16.34;81.08;99367.03;5054270;28;19925;-70
2021/08/31 07:53:49;;;;;;;;;;;;;;;16.30;81.06;99357.69;5053603;28;19932;-72
2021/08/31 07:56:18;;;;;;;;;;;;;;;16.23;81.07;99361.31;5054229;28;20267;-73
2021/08/31 07:58:48;;;;;;;;;;;;;;;16.20;81.09;99361.41;5054181;28;19931;-70
2021/08/31 08:01:17;;;;;;;;;;;;;;;16.20;81.09;99358.84;5054244;28;19925;-73
2021/08/31 08:03:46;;;;;;;;;;;;;;;16.29;81.38;99366.31;5054465;28;19925;-70
2021/08/31 08:06:15;;;;;;;;;;;;;;;16.34;81.50;99360.13;5053949;28;19970;-70
2021/08/31 08:08:44;;;;;;;;;;;;;;;16.41;81.23;99363.38;5054219;28;19956;-70
2021/08/31 08:11:12;;;;;;;;;;;;;;;16.48;80.82;99363.16;5053945;28;19978;-73
2021/08/31 08:13:41;;;;;;;;;;;;;;;16.57;80.77;99354.34;5054277;28;19924;-70
2021/08/31 08:16:11;;;;;;;;;;;;;;;16.61;80.31;99363.66;5053948;28;19929;-73
2021/08/31 08:18:40;;;;;;;;;;;;;;;16.65;80.07;99366.09;5053931;28;19967;-71
2021/08/31 08:21:08;;;;;;;;;;;;;;;16.64;80.05;99369.56;5053608;28;19929;-72
2021/08/31 08:23:37;;;;;;;;;;;;;;;16.66;79.76;99372.09;5054205;28;19928;-70
2021/08/31 08:26:06;;;;;;;;;;;;;;;16.66;79.79;99362.63;5054253;28;19947;-73
2021/08/31 08:28:35;;;;;;;;;;;;;;;16.65;79.45;99365.28;5053662;28;20019;-73
2021/08/31 08:31:04;;;;;;;;;;;;;;;16.72;79.53;99366.78;5053822;28;20255;-72
2021/08/31 08:33:35;;;;;;;;;;;;;;;16.78;79.09;99361.41;5054028;28;19929;-70
2021/08/31 08:36:04;;;;;;;;;;;;;;;16.83;79.34;99364.69;5053793;28;19925;-72
2021/08/31 08:38:34;;;;;;;;;;;;;;;16.86;79.44;99364.59;5054341;28;19931;-74
2021/08/31 08:41:05;;;;;;;;;;;;;;;16.83;79.40;99359.53;5053531;28;20019;-71
2021/08/31 08:43:34;;;;;;;;;;;;;;;16.84;79.60;99365.53;5054065;28;20016;-72
2021/08/31 08:46:04;;;;;;;;;;;;;;;16.86;79.64;99369.75;5053681;28;19932;-72
2021/08/31 08:48:34;;;;;;;;;;;;;;;16.88;79.89;99373.13;5053544;28;20377;-72
2021/08/31 08:51:04;;;;;;;;;;;;;;;16.91;80.12;99369.63;5053880;28;20376;-71
2021/08/31 08:53:35;;;;;;;;;;;;;;;16.94;80.52;99372.91;5053461;28;19931;-73
2021/08/31 08:56:04;;;;;;;;;;;;;;;16.95;80.36;99374.63;5053625;28;19932;-73
2021/08/31 08:58:32;;;;;;;;;;;;;;;16.97;80.64;99380.56;5053430;28;19925;-74
2021/08/31 09:01:03;;;;;;;;;;;;;;;16.96;80.96;99381.47;5053472;28;19925;-73
2021/08/31 09:03:35;;;;;;;;;;;;;;;16.96;81.16;99373.75;5054254;28;19932;-74
2021/08/31 09:06:08;;;;;;;;;;;;;;;16.93;81.24;99380.72;5057858;28;19964;-74
2021/08/31 09:08:39;;;;;;;;;;;;;;;16.88;81.50;99375.72;5057333;28;20428;-73
2021/08/31 09:11:18;;;;;;;;;;;;;;;16.86;81.60;99385.22;5057351;28;19924;-73
2021/08/31 09:13:47;;;;;;;;;;;;;;;16.83;81.70;99380.16;5057390;28;19925;-73
2021/08/31 09:16:23;;;;;;;;;;;;;;;16.83;81.96;99387.88;5057215;28;19971;-73
2021/08/31 09:18:54;;;;;;;;;;;;;;;16.82;81.98;99383.63;5057742;28;19925;-73
2021/08/31 09:21:23;;;;;;;;;;;;;;;16.82;82.17;99383.63;5056991;28;19960;-73
2021/08/31 09:23:53;;;;;;;;;;;;;;;16.75;82.23;99382.13;5057491;28;20283;-73
2021/08/31 09:26:32;;;;;;;;;;;;;;;16.78;82.47;99382.03;5057059;28;19965;-73
2021/08/31 09:29:03;;;;;;;;;;;;;;;16.84;82.68;99379.28;5057038;28;19929;-73
2021/08/31 09:31:43;;;;;;;;;;;;;;;16.91;82.98;99377.34;5056961;28;19925;-74
2021/08/31 09:34:27;;;;;;;;;;;;;;;16.98;82.76;99381.41;5056967;28;20029;-73
2021/08/31 09:36:57;;;;;;;;;;;;;;;16.99;82.76;99376.22;5056610;28;20294;-72
2021/08/31 09:39:29;;;;;;;;;;;;;;;16.98;82.92;99379.69;5056877;28;19964;-72
2021/08/31 09:42:08;;;;;;;;;;;;;;;16.93;82.95;99376.41;5056848;28;19931;-72
2021/08/31 09:44:37;;;;;;;;;;;;;;;16.98;83.19;99374.53;5056725;28;20392;-73
2021/08/31 09:47:06;;;;;;;;;;;;;;;16.99;83.16;99371.03;5022567;28;20012;-74
2021/08/31 09:49:39;;;;;;;;;;;;;;;17.01;83.32;99379.56;5056458;28;19925;-74
2021/08/31 09:52:11;;;;;;;;;;;;;;;17.06;83.42;99380.28;5056550;28;19947;-74
2021/08/31 09:54:40;;;;;;;;;;;;;;;17.14;83.57;99375.72;5056478;28;19963;-72
2021/08/31 09:57:20;;;;;;;;;;;;;;;17.20;83.48;99374.69;5056449;28;19963;-72
2021/08/31 09:59:48;;;;;;;;;;;;;;;17.36;83.50;99370.72;5056717;28;19925;-72
2021/08/31 10:02:17;;;;;;;;;;;;;;;17.48;83.35;99369.44;5056472;28;20378;-74
2021/08/31 10:04:46;;;;;;;;;;;;;;;17.58;83.20;99374.28;5056259;28;19925;-74
2021/08/31 10:07:16;;;;;;;;;;;;;;;17.65;83.19;99372.34;5055111;28;20024;-75
2021/08/31 10:09:45;;;;;;;;;;;;;;;17.71;83.15;99369.53;5067064;28;19975;-72
2021/08/31 10:12:15;;;;;;;;;;;;;;;17.80;83.30;99377.00;5056188;28;20397;-72
2021/08/31 10:14:46;;;;;;;;;;;;;;;17.79;83.31;99380.44;5055140;28;20404;-72
2021/08/31 10:17:16;;;;;;;;;;;;;;;17.76;83.26;99385.72;5037937;28;19924;-72
2021/08/31 10:19:45;;;;;;;;;;;;;;;17.73;82.96;99388.44;5055966;28;19971;-71
2021/08/31 10:22:17;;;;;;;;;;;;;;;17.61;82.73;99378.50;5047921;28;19931;-71
2021/08/31 10:24:46;;;;;;;;;;;;;;;17.53;83.03;99380.50;5066725;28;19925;-72
2021/08/31 10:27:36;;;;;;;;;;;;;;;17.53;82.91;99381.34;5057128;28;19925;-73
2021/08/31 10:30:15;;;;;;;;;;;;;;;17.55;83.00;99376.13;5052475;28;19970;-73
2021/08/31 10:32:45;;;;;;;;;;;;;;;17.59;83.19;99377.72;5074103;28;19925;-73
2021/08/31 10:35:39;;;;;;;;;;;;;;;17.70;82.96;99380.78;5074014;28;19959;-72
2021/08/31 10:38:10;;;;;;;;;;;;;;;17.73;82.94;99383.25;5074973;28;19998;-71
2021/08/31 10:40:39;;;;;;;;;;;;;;;17.77;82.92;99387.41;5074757;28;19925;-71
2021/08/31 10:43:09;;;;;;;;;;;;;;;17.76;82.84;99385.72;5074282;28;20332;-71
2021/08/31 10:45:38;;;;;;;;;;;;;;;17.79;82.73;99388.19;5061679;28;19971;-72
2021/08/31 10:48:22;;;;;;;;;;;;;;;17.93;82.64;99373.91;5066641;28;20034;-71
2021/08/31 10:50:51;;;;;;;;;;;;;;;18.17;82.65;99372.19;5057522;28;19970;-73
2021/08/31 10:53:35;;;;;;;;;;;;;;;18.14;82.22;99369.69;5073552;28;19970;-73
2021/08/31 10:58:58;;;;;;;;;;;;;;;18.50;80.66;99363.22;5112158;27;19916;-71
2021/08/31 11:01:28;;;;;;;;;;;;;;;19.23;79.55;99357.72;5111876;28;19967;-72
2021/08/31 11:03:57;;;;;;;;;;;;;;;19.45;78.32;99352.53;5110629;28;19960;-71
2021/08/31 11:06:35;;;;;;;;;;;;;;;19.56;77.58;99346.00;5112107;28;19973;-73
2021/08/31 11:09:12;;;;;;;;;;;;;;;19.73;77.20;99340.09;5111764;28;19928;-71
2021/08/31 11:11:41;;;;;;;;;;;;;;;19.72;76.91;99343.59;5111728;28;19930;-72
2021/08/31 11:14:13;;;;;;;;;;;;;;;19.83;76.48;99354.34;5111667;28;19927;-73
2021/08/31 11:16:42;;;;;;;;;;;;;;;20.11;75.98;99353.97;5111433;28;20023;-72
2021/08/31 11:19:25;;;;;;;;;;;;;;;20.40;75.01;99356.09;5111845;28;19928;-71
2021/08/31 11:21:54;;;;;;;;;;;;;;;20.78;73.60;99359.53;5110352;27;20014;-72
2021/08/31 11:24:23;;;;;;;;;;;;;;;21.01;72.85;99361.84;5111411;28;20047;-72
2021/08/31 11:26:57;;;;;;;;;;;;;;;20.95;71.86;99362.97;5111467;28;19969;-71
2021/08/31 11:29:27;;;;;;;;;;;;;;;21.07;70.43;99364.19;5111564;28;19924;-71
2021/08/31 11:32:00;;;;;;;;;;;;;;;21.43;69.53;99352.00;5111321;28;19978;-71
2021/08/31 11:34:33;;;;;;;;;;;;;;;21.64;68.75;99355.28;5111309;28;19924;-71
2021/08/31 11:37:05;;;;;;;;;;;;;;;21.51;68.38;99352.44;5111044;28;20010;-72
2021/08/31 11:39:34;;;;;;;;;;;;;;;21.05;68.41;99356.47;5111289;28;19950;-73
2021/08/31 11:42:09;;;;;;;;;;;;;;;20.83;69.15;99360.97;5111553;28;19928;-73
2021/08/31 11:44:56;;;;;;;;;;;;;;;20.73;69.33;99362.34;5111089;28;19931;-70
2021/08/31 11:47:25;;;;;;;;;;;;;;;20.77;69.03;99371.66;5110932;28;19924;-72
2021/08/31 11:49:59;;;;;;;;;;;;;;;20.66;69.31;99364.38;5110955;28;20002;-71
2021/08/31 11:52:28;;;;;;;;;;;;;;;20.72;68.81;99371.03;5110983;28;20419;-73
2021/08/31 11:54:58;;;;;;;;;;;;;;;20.75;68.67;99372.63;5111028;28;19924;-73
2021/08/31 11:57:30;;;;;;;;;;;;;;;21.12;68.42;99376.03;5119292;28;19930;-70
2021/08/31 12:00:01;;;;;;;;;;;;;;;20.96;68.69;99376.81;5131293;28;19927;-73
2021/08/31 12:02:41;;;;;;;;;;;;;;;20.62;68.96;99382.72;5131200;28;19924;-72
2021/08/31 12:05:10;;;;;;;;;;;;;;;20.27;69.62;99375.72;5131146;28;19930;-71
2021/08/31 12:07:39;;;;;;;;;;;;;;;20.14;70.43;99379.75;5131469;28;20396;-72
2021/08/31 12:10:09;;;;;;;;;;;;;;;20.01;70.89;99382.06;5118618;28;20266;-70
2021/08/31 12:12:39;;;;;;;;;;;;;;;19.93;70.83;99374.59;5117296;28;19931;-70
2021/08/31 12:15:10;;;;;;;;;;;;;;;19.97;70.19;99364.94;5117233;28;19928;-71
2021/08/31 12:17:42;;;;;;;;;;;;;;;20.07;70.05;99363.63;5117268;28;19924;-70
2021/08/31 12:20:11;;;;;;;;;;;;;;;20.57;69.18;99374.31;5117195;28;20377;-71
2021/08/31 12:22:41;;;;;;;;;;;;;;;21.16;67.71;99368.94;5117109;28;19953;-73
2021/08/31 12:25:10;;;;;;;;;;;;;;;21.88;65.99;99359.25;5117081;28;20018;-70
2021/08/31 12:27:41;;;;;;;;;;;;;;;22.47;64.38;99358.66;5116999;28;19934;-72
2021/08/31 12:30:12;;;;;;;;;;;;;;;22.13;63.73;99354.44;5116941;28;19927;-70
2021/08/31 12:32:42;;;;;;;;;;;;;;;21.64;64.00;99357.88;5117240;28;20257;-71
2021/08/31 12:35:24;;;;;;;;;;;;;;;21.16;64.54;99354.19;5116931;28;19970;-72
2021/08/31 12:38:10;;;;;;;;;;;;;;;20.87;65.11;99357.34;5116681;28;19924;-73
2021/08/31 12:40:42;;;;;;;;;;;;;;;20.62;65.64;99354.22;5116966;27;20305;-71
2021/08/31 12:43:11;;;;;;;;;;;;;;;20.51;66.71;99353.88;5116731;28;19924;-70
2021/08/31 12:45:41;;;;;;;;;;;;;;;20.39;66.97;99350.09;5116672;28;20028;-71
2021/08/31 12:48:10;;;;;;;;;;;;;;;20.19;67.75;99357.06;5116725;28;19992;-72
2021/08/31 12:50:50;;;;;;;;;;;;;;;19.92;68.54;99357.38;5116848;28;19959;-70
2021/08/31 12:53:19;;;;;;;;;;;;;;;19.71;68.90;99360.03;5116580;28;20425;-73
2021/08/31 12:56:00;;;;;;;;;;;;;;;19.65;69.54;99355.97;5116456;28;19955;-70
2021/08/31 12:58:31;;;;;;;;;;;;;;;19.56;70.22;99353.75;5116172;28;19924;-73
2021/08/31 13:01:04;;;;;;;;;;;;;;;19.54;70.57;99350.41;5116433;28;19927;-70
2021/08/31 13:03:34;;;;;;;;;;;;;;;19.45;70.69;99337.84;5116524;28;19924;-72
2021/08/31 13:06:04;;;;;;;;;;;;;;;19.54;71.12;99336.63;5116291;28;19924;-72